Time;durP1;ratioP1;P1;durP2;ratioP2;P2;SDS_P1;SDS_P2;PMS_P1;PMS_P2;Temp;Humidity;BMP_temperature;BMP_pressure;BME280_temperature;BME280_humidity;BME280_pressure;Samples;Min_cycle;Max_cycle;Signal;HPM_P1;HPM_P2
2022/08/24 00:01:17;;;;;;;2.83;0.90;;;21.60;99.90;;;;;;4907588;29;20527;-86
2022/08/24 00:03:44;;;;;;;2.58;1.33;;;21.60;99.90;;;;;;4897018;29;20044;-87
2022/08/24 00:06:14;;;;;;;1.92;1.20;;;21.50;99.90;;;;;;4913689;29;20513;-87
2022/08/24 00:08:40;;;;;;;4.03;0.98;;;21.50;99.90;;;;;;4913594;29;20036;-87
2022/08/24 00:11:06;;;;;;;2.05;1.15;;;21.50;99.90;;;;;;4914329;29;20365;-86
2022/08/24 00:13:33;;;;;;;2.65;1.20;;;21.50;99.90;;;;;;4908676;29;20030;-87
2022/08/24 00:15:58;;;;;;;2.25;1.10;;;21.50;99.90;;;;;;4914100;29;20020;-86
2022/08/24 00:18:27;;;;;;;2.85;1.02;;;21.40;99.90;;;;;;4914540;29;20355;-87
2022/08/24 00:20:53;;;;;;;3.20;1.15;;;21.40;99.90;;;;;;4913716;29;20144;-86
2022/08/24 00:23:19;;;;;;;2.50;1.30;;;21.40;99.90;;;;;;4913744;29;20503;-87
2022/08/24 00:25:45;;;;;;;2.90;1.20;;;21.40;99.90;;;;;;4913594;29;20118;-87
2022/08/24 00:28:11;;;;;;;4.43;1.48;;;21.40;99.90;;;;;;4913751;29;20025;-86
2022/08/24 00:30:37;;;;;;;2.92;1.27;;;21.40;99.90;;;;;;4913510;29;20552;-86
2022/08/24 00:33:03;;;;;;;3.30;1.35;;;21.30;99.90;;;;;;4913540;29;20036;-86
2022/08/24 00:35:29;;;;;;;5.25;1.80;;;21.30;99.90;;;;;;4913732;29;20028;-86
2022/08/24 00:37:56;;;;;;;5.13;1.70;;;21.40;99.90;;;;;;4913434;29;20063;-87
2022/08/24 00:40:32;;;;;;;4.82;1.85;;;21.30;99.90;;;;;;4913708;29;20122;-86
2022/08/24 00:43:03;;;;;;;3.40;1.10;;;21.30;99.90;;;;;;4913585;29;20055;-88
2022/08/24 00:45:49;;;;;;;2.60;1.33;;;21.40;99.90;;;;;;4913523;29;20481;-86
2022/08/24 00:48:23;;;;;;;2.45;1.27;;;21.40;99.90;;;;;;4874255;29;20244;-86
2022/08/24 00:51:03;;;;;;;2.55;1.55;;;21.30;99.90;;;;;;4913506;29;20036;-86
2022/08/24 00:53:37;;;;;;;2.13;1.10;;;21.30;99.90;;;;;;4914427;29;20060;-86
2022/08/24 00:56:09;;;;;;;3.33;0.98;;;21.30;99.90;;;;;;4917411;29;20039;-89
2022/08/24 00:59:16;;;;;;;5.00;1.60;;;21.30;99.90;;;;;;4917430;29;20080;-87
2022/08/24 01:01:43;;;;;;;2.45;1.02;;;21.30;99.90;;;;;;4917361;29;20024;-87
2022/08/24 01:04:14;;;;;;;2.30;1.30;;;21.30;99.90;;;;;;4916919;29;20067;-86
2022/08/24 01:06:41;;;;;;;3.00;1.15;;;21.30;99.90;;;;;;4916841;29;20031;-87
2022/08/24 01:09:06;;;;;;;4.80;1.50;;;21.20;99.90;;;;;;4916758;29;20028;-86
2022/08/24 01:11:34;;;;;;;4.40;1.35;;;21.20;99.90;;;;;;4917058;29;20039;-87
2022/08/24 01:14:02;;;;;;;3.30;1.23;;;21.20;99.90;;;;;;4881451;29;20040;-87
2022/08/24 01:19:24;;;;;;;3.58;1.10;;;21.10;99.90;;;;;;4904194;29;20036;-86
2022/08/24 01:21:57;;;;;;;3.47;1.33;;;21.10;99.90;;;;;;4886903;29;20509;-86
2022/08/24 01:24:23;;;;;;;2.27;1.13;;;21.10;99.90;;;;;;4887663;29;20055;-86
2022/08/24 01:26:49;;;;;;;3.45;1.20;;;21.10;99.90;;;;;;4899517;29;20043;-87
2022/08/24 01:29:19;;;;;;;3.53;1.13;;;21.00;99.90;;;;;;4916316;29;20390;-86
2022/08/24 01:31:44;;;;;;;1.27;0.93;;;21.00;99.90;;;;;;4916837;29;20031;-89
2022/08/24 01:34:11;;;;;;;4.05;1.40;;;20.90;99.90;;;;;;4916880;29;20114;-87
2022/08/24 01:36:45;;;;;;;2.63;1.13;;;21.00;99.90;;;;;;4916814;29;20020;-87
2022/08/24 01:39:27;;;;;;;3.28;1.48;;;20.90;99.90;;;;;;4915387;29;20032;-87
2022/08/24 01:41:54;;;;;;;4.13;1.20;;;20.90;99.90;;;;;;4917018;29;20024;-86
2022/08/24 01:44:22;;;;;;;1.65;1.00;;;20.90;99.90;;;;;;4916840;29;20068;-87
2022/08/24 01:46:52;;;;;;;1.27;1.00;;;20.90;99.90;;;;;;4916459;29;20039;-86
2022/08/24 01:49:19;;;;;;;2.35;1.13;;;20.90;99.90;;;;;;4916446;29;20489;-87
2022/08/24 01:51:45;;;;;;;1.88;1.10;;;20.90;99.90;;;;;;4916685;29;20124;-87
2022/08/24 01:54:11;;;;;;;1.98;1.20;;;20.90;99.90;;;;;;4916320;29;20545;-87
2022/08/24 01:56:37;;;;;;;1.50;1.10;;;20.90;99.90;;;;;;4916837;29;20114;-87
2022/08/24 01:59:05;;;;;;;3.35;1.10;;;20.80;99.90;;;;;;4899354;29;20028;-86
2022/08/24 02:01:36;;;;;;;11.23;1.50;;;20.90;99.90;;;;;;4916367;29;20036;-86
2022/08/24 02:04:04;;;;;;;2.30;0.98;;;20.90;99.90;;;;;;4916015;29;20058;-86
2022/08/24 02:06:32;;;;;;;2.42;1.42;;;20.80;99.90;;;;;;4899090;29;20127;-86
2022/08/24 02:08:58;;;;;;;1.40;1.10;;;20.80;99.90;;;;;;4915876;29;20040;-86
2022/08/24 02:11:23;;;;;;;2.38;1.40;;;20.80;99.90;;;;;;4899012;29;20080;-86
2022/08/24 02:13:49;;;;;;;4.70;1.27;;;20.70;99.90;;;;;;4916087;29;20301;-87
2022/08/24 02:16:15;;;;;;;3.58;1.20;;;20.70;99.90;;;;;;4916349;29;20480;-86
2022/08/24 02:18:41;;;;;;;3.35;1.30;;;20.70;99.90;;;;;;4915905;29;20091;-86
2022/08/24 02:21:09;;;;;;;1.17;1.02;;;20.70;99.90;;;;;;4915862;29;20449;-87
2022/08/24 02:23:36;;;;;;;2.45;1.25;;;20.60;99.90;;;;;;4915809;29;20040;-87
2022/08/24 02:26:06;;;;;;;3.42;1.15;;;20.60;99.90;;;;;;4915667;29;20032;-86
2022/08/24 02:28:33;;;;;;;2.42;1.50;;;20.60;99.90;;;;;;4915441;29;20473;-86
2022/08/24 02:31:00;;;;;;;2.75;1.15;;;20.60;99.90;;;;;;4915314;29;20035;-86
2022/08/24 02:33:25;;;;;;;2.38;1.30;;;20.50;99.90;;;;;;4891330;29;20080;-87
2022/08/24 02:35:53;;;;;;;3.28;1.20;;;20.50;99.90;;;;;;4913571;29;20028;-86
2022/08/24 02:38:19;;;;;;;2.55;1.48;;;20.50;99.90;;;;;;4917124;29;20028;-86
2022/08/24 02:40:45;;;;;;;2.70;1.30;;;20.50;99.90;;;;;;4915564;29;20039;-87
2022/08/24 02:43:12;;;;;;;3.38;1.30;;;20.50;99.90;;;;;;4915334;29;20032;-87
2022/08/24 02:45:42;;;;;;;3.45;1.40;;;20.50;99.90;;;;;;4915321;29;20496;-87
2022/08/24 02:48:09;;;;;;;2.47;1.40;;;20.40;99.90;;;;;;4915164;29;20072;-87
2022/08/24 02:50:40;;;;;;;2.50;1.35;;;20.40;99.90;;;;;;4898323;29;20040;-86
2022/08/24 02:53:06;;;;;;;2.03;1.50;;;20.40;99.90;;;;;;4914825;29;20059;-87
2022/08/24 02:55:31;;;;;;;2.72;1.77;;;20.40;99.90;;;;;;4915438;29;20086;-86
2022/08/24 02:57:57;;;;;;;2.25;1.60;;;20.40;99.90;;;;;;4915273;29;20036;-86
2022/08/24 03:00:23;;;;;;;2.40;1.80;;;20.40;99.90;;;;;;4915158;29;20482;-87
2022/08/24 03:02:50;;;;;;;2.85;1.50;;;20.30;99.90;;;;;;4915705;29;20027;-86
2022/08/24 03:05:16;;;;;;;3.38;1.70;;;20.40;99.90;;;;;;4914778;29;20083;-87
2022/08/24 03:07:41;;;;;;;3.40;1.65;;;20.30;99.90;;;;;;4915182;29;20029;-86
2022/08/24 03:10:08;;;;;;;5.10;1.95;;;20.30;99.90;;;;;;4914939;29;20047;-88
2022/08/24 03:12:33;;;;;;;2.92;1.35;;;20.30;99.90;;;;;;4890464;29;20020;-87
2022/08/24 03:15:01;;;;;;;4.60;1.70;;;20.30;99.90;;;;;;4908966;29;20038;-87
2022/08/24 03:17:30;;;;;;;4.03;1.58;;;20.30;99.90;;;;;;4914138;29;20026;-87
2022/08/24 03:19:56;;;;;;;2.83;1.58;;;20.30;99.90;;;;;;4914610;29;20030;-87
2022/08/24 03:22:22;;;;;;;2.60;1.60;;;20.30;99.90;;;;;;4914766;29;20059;-87
2022/08/24 03:24:47;;;;;;;4.72;1.38;;;20.30;99.90;;;;;;4914634;29;20067;-86
2022/08/24 03:27:13;;;;;;;2.55;1.40;;;20.30;99.90;;;;;;4914810;29;20032;-88
2022/08/24 03:29:39;;;;;;;2.95;1.58;;;20.30;99.90;;;;;;4894585;29;20166;-86
2022/08/24 03:32:05;;;;;;;5.90;1.70;;;20.20;99.90;;;;;;4909007;29;20031;-86
2022/08/24 03:34:30;;;;;;;2.38;1.10;;;20.20;99.90;;;;;;4914710;29;20254;-86
2022/08/24 03:36:56;;;;;;;1.67;1.48;;;20.20;99.90;;;;;;4914770;29;20060;-87
2022/08/24 03:39:22;;;;;;;3.97;1.55;;;20.20;99.90;;;;;;4897661;29;20032;-87
2022/08/24 03:41:47;;;;;;;4.80;1.55;;;20.20;99.90;;;;;;4914452;29;20024;-86
2022/08/24 03:44:13;;;;;;;3.30;1.75;;;20.20;99.90;;;;;;4914399;29;20032;-86
2022/08/24 03:46:40;;;;;;;4.75;2.22;;;20.20;99.90;;;;;;4914421;29;20024;-86
2022/08/24 03:49:08;;;;;;;4.22;1.60;;;20.20;99.90;;;;;;4914328;29;20025;-86
2022/08/24 03:51:34;;;;;;;3.10;1.67;;;20.10;99.90;;;;;;4896944;29;20700;-86
2022/08/24 03:54:01;;;;;;;3.95;1.77;;;20.10;99.90;;;;;;4914085;29;20039;-87
2022/08/24 03:56:27;;;;;;;1.90;1.70;;;20.10;99.90;;;;;;4894824;29;20040;-86
2022/08/24 03:58:53;;;;;;;2.58;1.77;;;20.10;99.90;;;;;;4914026;29;20020;-87
2022/08/24 04:01:20;;;;;;;3.80;1.50;;;20.10;99.90;;;;;;4914304;29;20039;-87
2022/08/24 04:03:47;;;;;;;5.50;1.92;;;20.10;99.90;;;;;;4913865;29;20385;-87
2022/08/24 04:06:16;;;;;;;4.18;1.70;;;20.10;99.90;;;;;;4913829;29;20541;-87
2022/08/24 04:08:41;;;;;;;2.40;1.60;;;20.10;99.90;;;;;;4913645;29;20023;-86
2022/08/24 04:11:16;;;;;;;2.13;1.73;;;20.10;99.90;;;;;;4887430;29;20032;-88
2022/08/24 04:13:42;;;;;;;3.17;2.03;;;20.00;99.90;;;;;;4909643;29;20020;-87
2022/08/24 04:16:11;;;;;;;2.45;1.90;;;20.00;99.90;;;;;;4897999;29;20024;-87
2022/08/24 04:18:38;;;;;;;2.53;1.80;;;20.00;99.90;;;;;;4914322;29;20119;-87
2022/08/24 04:21:05;;;;;;;2.70;2.08;;;19.90;99.90;;;;;;4914038;29;20098;-87
2022/08/24 04:23:32;;;;;;;4.93;2.05;;;19.90;99.90;;;;;;4904764;29;20256;-87
2022/08/24 04:26:02;;;;;;;4.07;2.10;;;19.90;99.90;;;;;;4903952;29;20016;-87
2022/08/24 04:28:29;;;;;;;5.80;2.33;;;19.90;99.90;;;;;;4904824;29;20387;-87
2022/08/24 04:30:56;;;;;;;2.55;1.83;;;19.90;99.90;;;;;;4923653;29;20208;-86
2022/08/24 04:33:22;;;;;;;3.33;2.13;;;19.90;99.90;;;;;;4923333;29;20019;-87
2022/08/24 04:35:49;;;;;;;5.28;2.40;;;19.80;99.90;;;;;;4924899;29;20312;-87
2022/08/24 04:38:17;;;;;;;4.25;2.10;;;19.80;99.90;;;;;;4924768;29;20023;-86
2022/08/24 04:40:45;;;;;;;4.03;2.00;;;19.80;99.90;;;;;;4924855;29;20016;-87
2022/08/24 04:43:13;;;;;;;3.90;2.15;;;19.80;99.90;;;;;;4924594;29;20091;-87
2022/08/24 04:45:46;;;;;;;2.95;2.10;;;19.80;99.90;;;;;;4901015;29;20036;-87
2022/08/24 04:48:13;;;;;;;4.00;2.08;;;19.80;99.90;;;;;;4924050;29;20028;-87
2022/08/24 04:50:41;;;;;;;1.92;1.73;;;19.80;99.90;;;;;;4924559;29;20168;-87
2022/08/24 04:53:09;;;;;;;3.10;2.00;;;19.80;99.90;;;;;;4924584;29;20032;-89
2022/08/24 04:55:49;;;;;;;3.22;1.98;;;19.80;99.90;;;;;;4924777;29;20027;-89
2022/08/24 04:58:16;;;;;;;3.38;1.90;;;19.80;99.90;;;;;;4924559;29;20016;-88
2022/08/24 05:00:43;;;;;;;3.00;2.10;;;19.80;99.90;;;;;;4921875;29;20305;-87
2022/08/24 05:03:10;;;;;;;3.58;1.83;;;19.80;99.90;;;;;;4922431;29;20024;-87
2022/08/24 05:05:40;;;;;;;4.40;2.10;;;19.80;99.90;;;;;;4913497;29;20048;-86
2022/08/24 05:08:06;;;;;;;4.07;2.28;;;19.80;99.90;;;;;;4913421;29;20028;-86
2022/08/24 05:10:32;;;;;;;3.78;2.15;;;19.80;99.90;;;;;;4914061;29;20083;-93
2022/08/24 05:12:58;;;;;;;4.72;2.20;;;19.80;99.90;;;;;;4899081;29;20032;-92
2022/08/24 05:15:23;;;;;;;6.60;2.20;;;19.80;99.90;;;;;;4897499;29;20031;-92
2022/08/24 05:17:49;;;;;;;3.28;2.25;;;19.80;99.90;;;;;;4915768;29;20033;-93
2022/08/24 05:20:16;;;;;;;3.65;1.98;;;19.80;99.90;;;;;;4913928;29;20031;-92
2022/08/24 05:22:42;;;;;;;4.63;2.22;;;19.80;99.90;;;;;;4907710;29;20068;-92
2022/08/24 05:25:08;;;;;;;4.32;2.20;;;19.80;99.90;;;;;;4900490;29;20079;-92
2022/08/24 05:27:34;;;;;;;2.33;1.95;;;19.80;99.90;;;;;;4905124;29;20026;-92
2022/08/24 05:29:59;;;;;;;3.45;2.05;;;19.80;99.90;;;;;;4903175;29;20127;-92
2022/08/24 05:32:25;;;;;;;2.88;2.00;;;19.80;99.90;;;;;;4920462;29;20024;-92
2022/08/24 05:34:51;;;;;;;2.42;1.98;;;19.80;99.90;;;;;;4897101;29;20054;-92
2022/08/24 05:37:17;;;;;;;4.05;2.03;;;19.90;99.90;;;;;;4897127;29;20079;-92
2022/08/24 05:39:43;;;;;;;6.65;2.58;;;19.90;99.90;;;;;;4898335;29;20052;-92
2022/08/24 05:42:08;;;;;;;3.50;2.55;;;19.90;99.90;;;;;;4900517;29;20025;-91
2022/08/24 05:44:34;;;;;;;5.60;2.50;;;20.00;99.90;;;;;;4900389;29;20032;-92
2022/08/24 05:47:01;;;;;;;3.30;2.15;;;19.90;99.90;;;;;;4900753;29;20040;-92
2022/08/24 05:49:27;;;;;;;3.90;2.08;;;20.00;99.90;;;;;;4910641;29;20040;-92
2022/08/24 05:51:53;;;;;;;3.70;2.33;;;20.00;99.90;;;;;;4923005;29;20048;-92
2022/08/24 05:54:19;;;;;;;4.38;2.03;;;20.00;99.90;;;;;;4923664;29;20096;-91
2022/08/24 05:56:46;;;;;;;4.20;1.95;;;20.00;99.90;;;;;;4911527;29;20020;-93
2022/08/24 05:59:13;;;;;;;3.88;2.60;;;20.10;99.90;;;;;;4911804;29;20020;-92
2022/08/24 06:01:40;;;;;;;2.95;2.00;;;20.10;99.90;;;;;;4923887;29;20083;-92
2022/08/24 06:04:07;;;;;;;3.67;1.90;;;20.10;99.90;;;;;;4923996;29;20613;-91
2022/08/24 06:06:33;;;;;;;3.58;2.33;;;20.20;99.90;;;;;;4911726;29;20023;-93
2022/08/24 06:09:00;;;;;;;2.58;2.00;;;20.20;99.90;;;;;;4920953;29;20032;-91
2022/08/24 06:11:29;;;;;;;4.03;2.25;;;20.30;99.90;;;;;;4918198;29;20016;-93
2022/08/24 06:13:58;;;;;;;4.22;1.92;;;20.30;99.90;;;;;;4941022;29;20035;-92
2022/08/24 06:16:24;;;;;;;2.38;1.92;;;20.30;99.90;;;;;;4925085;29;20279;-92
2022/08/24 06:18:51;;;;;;;2.65;2.08;;;20.40;99.90;;;;;;4920033;29;20087;-92
2022/08/24 06:21:20;;;;;;;3.00;1.88;;;20.40;99.90;;;;;;4918865;29;20043;-93
2022/08/24 06:23:47;;;;;;;2.22;1.63;;;20.50;99.90;;;;;;4901068;29;20035;-93
2022/08/24 06:28:59;;;;;;;;;;;20.70;99.90;;;;;;4918517;29;20567;-92
2022/08/24 06:31:25;;;;;;;3.38;2.03;;;20.70;99.90;;;;;;4916964;29;19922;-92
2022/08/24 06:33:51;;;;;;;4.15;1.92;;;20.80;99.90;;;;;;4901521;29;20024;-93
2022/08/24 06:36:17;;;;;;;3.45;1.90;;;20.90;99.90;;;;;;4900868;29;20461;-92
2022/08/24 06:38:42;;;;;;;2.92;1.40;;;20.90;99.90;;;;;;4900268;29;20028;-93
2022/08/24 06:41:08;;;;;;;3.05;1.67;;;21.00;99.90;;;;;;4900915;29;20031;-92
2022/08/24 06:43:35;;;;;;;3.78;1.83;;;21.10;99.90;;;;;;4900019;29;20040;-92
2022/08/24 06:46:01;;;;;;;4.45;1.60;;;21.10;99.90;;;;;;4916664;29;20032;-92
2022/08/24 06:48:29;;;;;;;4.60;1.83;;;21.20;99.90;;;;;;4916642;29;20042;-92
2022/08/24 06:50:55;;;;;;;2.92;1.88;;;21.20;99.90;;;;;;4899577;29;20048;-93
2022/08/24 06:53:20;;;;;;;2.72;2.08;;;21.30;99.90;;;;;;4899691;29;20027;-93
2022/08/24 06:55:53;;;;;;;3.60;1.52;;;21.30;99.90;;;;;;4899632;29;20063;-93
2022/08/24 06:58:21;;;;;;;3.15;1.50;;;21.40;99.90;;;;;;4916574;29;20031;-92
2022/08/24 07:00:47;;;;;;;2.58;1.45;;;21.40;99.90;;;;;;4916490;29;20100;-93
2022/08/24 07:03:14;;;;;;;2.53;1.58;;;21.50;99.90;;;;;;4899251;29;20060;-93
2022/08/24 07:05:40;;;;;;;2.55;1.55;;;21.60;99.90;;;;;;4899392;29;20048;-92
2022/08/24 07:08:07;;;;;;;4.07;1.60;;;21.70;99.90;;;;;;4899541;29;20036;-93
2022/08/24 07:10:33;;;;;;;4.15;1.27;;;21.80;99.90;;;;;;4917174;29;20068;-92
2022/08/24 07:13:00;;;;;;;3.55;1.33;;;21.80;99.90;;;;;;4916981;29;20043;-93
2022/08/24 07:15:25;;;;;;;4.30;1.65;;;21.90;99.90;;;;;;4915462;29;20020;-91
2022/08/24 07:17:53;;;;;;;4.00;1.20;;;22.00;99.90;;;;;;4916652;29;20032;-93
2022/08/24 07:20:19;;;;;;;2.03;1.33;;;22.10;99.90;;;;;;4899303;29;20028;-92
2022/08/24 07:22:45;;;;;;;4.43;1.33;;;22.20;99.90;;;;;;4899415;29;20034;-93
2022/08/24 07:25:12;;;;;;;4.22;1.38;;;22.30;99.90;;;;;;4899216;29;20032;-93
2022/08/24 07:27:38;;;;;;;2.47;1.17;;;22.40;99.90;;;;;;4899277;29;20024;-92
2022/08/24 07:30:05;;;;;;;3.95;1.40;;;22.50;99.90;;;;;;4899126;29;20040;-92
2022/08/24 07:32:32;;;;;;;4.32;1.30;;;22.50;99.90;;;;;;4909174;29;20113;-93
2022/08/24 07:34:58;;;;;;;2.13;1.50;;;22.60;99.90;;;;;;4899242;29;20071;-93
2022/08/24 07:37:24;;;;;;;2.47;1.45;;;22.70;99.90;;;;;;4899131;29;20024;-93
2022/08/24 07:39:50;;;;;;;3.67;1.10;;;22.80;99.90;;;;;;4898781;29;20027;-93
2022/08/24 07:42:16;;;;;;;3.03;1.35;;;23.00;99.90;;;;;;4915279;29;20048;-92
2022/08/24 07:44:42;;;;;;;9.48;2.30;;;23.00;99.90;;;;;;4908159;29;20056;-92
2022/08/24 07:47:08;;;;;;;7.13;1.40;;;23.20;99.90;;;;;;4909609;29;20024;-92
2022/08/24 07:49:34;;;;;;;7.15;1.67;;;23.30;99.90;;;;;;4922304;29;20036;-93
2022/08/24 07:52:00;;;;;;;5.45;1.63;;;23.40;99.90;;;;;;4922705;29;20009;-92
2022/08/24 07:54:28;;;;;;;7.15;1.70;;;23.50;99.90;;;;;;4908764;29;20055;-92
2022/08/24 07:56:57;;;;;;;3.85;1.30;;;23.60;99.90;;;;;;4898823;29;20467;-92
2022/08/24 07:59:24;;;;;;;3.05;1.08;;;23.70;99.90;;;;;;4927758;29;20031;-92
2022/08/24 08:01:51;;;;;;;5.45;1.30;;;23.70;99.90;;;;;;4921027;29;20004;-92
2022/08/24 08:04:20;;;;;;;3.05;1.27;;;23.80;99.90;;;;;;4919454;29;20048;-92
2022/08/24 08:06:46;;;;;;;4.55;1.23;;;23.90;99.90;;;;;;4918550;29;20024;-93
2022/08/24 08:09:12;;;;;;;1.90;1.27;;;23.90;99.90;;;;;;4910874;29;20037;-93
2022/08/24 08:11:37;;;;;;;3.70;1.27;;;24.00;99.90;;;;;;4895243;29;20397;-92
2022/08/24 08:14:03;;;;;;;1.70;1.10;;;24.10;99.90;;;;;;4911425;29;20021;-92
2022/08/24 08:16:29;;;;;;;3.53;1.30;;;24.20;99.90;;;;;;4895530;29;20036;-93
2022/08/24 08:18:55;;;;;;;2.85;1.10;;;24.20;99.90;;;;;;4895187;29;20033;-92
2022/08/24 08:24:14;;;;;;;2.40;1.17;;;24.50;99.90;;;;;;4896664;29;20087;-93
2022/08/24 08:26:40;;;;;;;3.50;1.30;;;24.60;99.90;;;;;;4895725;29;20545;-93
2022/08/24 08:29:07;;;;;;;1.63;1.00;;;24.70;99.90;;;;;;4911215;29;20048;-93
2022/08/24 08:31:33;;;;;;;2.25;1.08;;;24.80;99.90;;;;;;4894796;29;20029;-93
2022/08/24 08:33:58;;;;;;;1.75;1.10;;;24.90;99.90;;;;;;4895141;29;20127;-93
2022/08/24 08:36:27;;;;;;;1.85;1.05;;;25.00;99.90;;;;;;4894919;29;20028;-92
2022/08/24 08:38:53;;;;;;;7.78;1.30;;;25.10;99.90;;;;;;4895207;29;20033;-92
2022/08/24 08:41:59;;;;;;;9.35;1.65;;;25.20;99.90;;;;;;4895485;29;20035;-93
2022/08/24 08:45:07;;;;;;;2.92;1.17;;;25.30;99.90;;;;;;4898211;29;20028;-92
2022/08/24 08:47:57;;;;;;;2.45;1.08;;;25.40;99.90;;;;;;4895200;29;20675;-92
2022/08/24 08:51:01;;;;;;;1.50;1.10;;;25.60;99.90;;;;;;4898862;29;20037;-93
2022/08/24 08:53:45;;;;;;;3.53;1.10;;;25.80;99.90;;;;;;4910509;29;20044;-92
2022/08/24 08:56:33;;;;;;;4.03;1.00;;;25.80;99.90;;;;;;4910844;29;20515;-93
2022/08/24 08:59:15;;;;;;;1.15;0.80;;;25.90;99.90;;;;;;4910107;29;20035;-93
2022/08/24 09:01:47;;;;;;;1.35;0.95;;;26.00;99.90;;;;;;4894720;29;20032;-93
2022/08/24 09:04:39;;;;;;;2.80;0.80;;;26.10;99.90;;;;;;4898934;29;20044;-92
2022/08/24 09:07:46;;;;;;;5.15;1.40;;;26.20;99.90;;;;;;4884355;29;20040;-92
2022/08/24 09:11:00;;;;;;;1.95;1.00;;;26.30;99.90;;;;;;4884976;29;20048;-93
2022/08/24 09:13:44;;;;;;;1.40;0.77;;;26.30;99.90;;;;;;4837485;29;20030;-93
2022/08/24 09:16:30;;;;;;;;;;;26.40;99.90;;;;;;4887667;29;20052;-92
2022/08/24 09:18:56;;;;;;;6.72;1.27;;;26.50;99.90;;;;;;4901671;29;19907;-94
2022/08/24 09:21:47;;;;;;;1.77;0.82;;;26.60;99.90;;;;;;4901813;29;20030;-92
2022/08/24 09:24:27;;;;;;;2.55;1.10;;;26.80;99.90;;;;;;4901834;29;20039;-93
2022/08/24 09:27:02;;;;;;;1.42;0.90;;;26.80;99.90;;;;;;4916882;29;20039;-93
2022/08/24 09:29:42;;;;;;;1.02;0.70;;;26.90;99.90;;;;;;4889112;29;20111;-92
2022/08/24 09:32:34;;;;;;;3.83;1.10;;;27.10;99.90;;;;;;4917129;29;20526;-93
2022/08/24 09:35:08;;;;;;;2.17;0.98;;;27.20;99.90;;;;;;4905406;29;20020;-92
2022/08/24 09:37:55;;;;;;;2.78;0.90;;;27.30;99.90;;;;;;4901031;29;20024;-93
2022/08/24 09:40:35;;;;;;;1.98;0.77;;;27.40;99.90;;;;;;4905954;29;20119;-94
2022/08/24 09:43:23;;;;;;;1.85;0.95;;;27.50;99.90;;;;;;4900882;29;20027;-93
2022/08/24 09:46:11;;;;;;;4.25;1.00;;;27.60;99.90;;;;;;4900998;29;20047;-93
2022/08/24 09:49:05;;;;;;;2.38;0.93;;;27.70;99.90;;;;;;4903998;29;20544;-93
2022/08/24 09:52:23;;;;;;;4.07;0.60;;;27.90;99.90;;;;;;4887725;29;20888;-92
2022/08/24 09:55:08;;;;;;;3.67;0.70;;;28.00;99.90;;;;;;4881007;29;20060;-93
2022/08/24 09:58:10;;;;;;;1.95;0.73;;;28.20;99.90;;;;;;4891379;29;20059;-93
2022/08/24 10:00:52;;;;;;;4.05;0.60;;;28.40;99.90;;;;;;4889123;29;20087;-92
2022/08/24 10:03:43;;;;;;;3.20;0.68;;;28.50;99.90;;;;;;4888143;29;20068;-92
2022/08/24 10:06:30;;;;;;;3.30;0.75;;;28.60;99.90;;;;;;4900773;29;20075;-92
2022/08/24 10:09:15;;;;;;;3.70;0.93;;;28.80;99.90;;;;;;4886827;29;20040;-93
2022/08/24 10:11:53;;;;;;;2.10;0.70;;;28.80;99.90;;;;;;4900145;29;20036;-93
2022/08/24 10:14:59;;;;;;;4.95;0.70;;;29.00;99.90;;;;;;4917342;29;20035;-93
2022/08/24 10:17:37;;;;;;;1.52;0.70;;;29.20;99.90;;;;;;4900320;29;20130;-92
2022/08/24 10:20:41;;;;;;;1.27;0.30;;;29.30;99.90;;;;;;4917365;29;20035;-92
2022/08/24 10:23:33;;;;;;;2.67;0.50;;;29.30;99.90;;;;;;4839650;29;20049;-91
2022/08/24 10:26:07;;;;;;;1.83;0.50;;;29.50;99.90;;;;;;4905448;29;20043;-93
2022/08/24 10:28:56;;;;;;;1.48;0.50;;;29.60;99.70;;;;;;4900249;29;20385;-93
2022/08/24 10:31:47;;;;;;;2.50;0.50;;;29.70;99.60;;;;;;4904356;29;20036;-93
2022/08/24 10:35:01;;;;;;;2.03;0.60;;;29.80;99.50;;;;;;4899963;29;20393;-93
2022/08/24 10:39:39;;;;;;;1.00;0.60;;;30.00;99.10;;;;;;4893126;29;20043;-92
2022/08/24 10:41:09;;;;;;;1.35;0.60;;;30.10;98.80;;;;;;4904223;29;20021;-93
2022/08/24 10:43:57;;;;;;;2.85;0.50;;;30.30;98.80;;;;;;4899774;29;20124;-94
2022/08/24 10:46:38;;;;;;;0.93;0.40;;;30.40;98.60;;;;;;4915427;29;20075;-87
2022/08/24 10:49:22;;;;;;;1.48;0.50;;;30.70;97.70;;;;;;4914962;29;20537;-87
2022/08/24 10:52:00;;;;;;;4.03;0.75;;;30.90;97.50;;;;;;4915259;29;20512;-87
2022/08/24 10:54:26;;;;;;;1.33;0.57;;;31.00;97.20;;;;;;4915171;29;20378;-86
2022/08/24 10:57:10;;;;;;;1.20;0.38;;;31.00;97.30;;;;;;4885414;29;20044;-87
2022/08/24 10:59:54;;;;;;;1.65;0.38;;;31.10;97.10;;;;;;4904262;29;20043;-87
2022/08/24 11:02:33;;;;;;;2.08;0.55;;;31.20;96.70;;;;;;4915348;29;20024;-86
2022/08/24 11:05:04;;;;;;;1.40;0.40;;;31.10;96.80;;;;;;4915131;29;20056;-86
2022/08/24 11:07:32;;;;;;;0.90;0.30;;;31.20;96.90;;;;;;4897562;29;20016;-86
2022/08/24 11:10:09;;;;;;;0.65;0.40;;;31.40;96.30;;;;;;4914810;29;20119;-87
2022/08/24 11:12:42;;;;;;;0.90;0.50;;;31.50;95.50;;;;;;4912466;29;20106;-86
2022/08/24 11:15:17;;;;;;;4.10;0.77;;;31.40;95.60;;;;;;4904116;29;20028;-87
2022/08/24 11:17:58;;;;;;;0.88;0.40;;;31.50;95.90;;;;;;4914795;29;20083;-87
2022/08/24 11:20:32;;;;;;;1.85;0.47;;;31.40;95.30;;;;;;4897741;29;20083;-87
2022/08/24 11:23:14;;;;;;;2.55;0.50;;;31.40;95.10;;;;;;4914511;29;20039;-86
2022/08/24 11:25:52;;;;;;;0.77;0.32;;;31.30;95.10;;;;;;4914743;29;20087;-88
2022/08/24 11:28:42;;;;;;;0.45;0.38;;;31.10;94.90;;;;;;4891794;29;20032;-87
2022/08/24 11:31:13;;;;;;;2.17;0.65;;;30.90;95.30;;;;;;4903383;29;20107;-86
2022/08/24 11:33:47;;;;;;;1.58;0.40;;;30.60;95.80;;;;;;4914709;29;20477;-87
2022/08/24 11:36:17;;;;;;;0.57;0.40;;;30.30;95.60;;;;;;4914314;29;20032;-87
2022/08/24 11:38:43;;;;;;;2.38;0.60;;;30.00;95.60;;;;;;4897068;29;20028;-87
2022/08/24 11:41:17;;;;;;;4.47;0.60;;;29.90;95.60;;;;;;4914598;29;20401;-87
2022/08/24 11:43:51;;;;;;;1.27;0.38;;;29.90;95.90;;;;;;4914733;29;20028;-87
2022/08/24 11:46:40;;;;;;;1.17;0.40;;;30.20;95.50;;;;;;4914378;29;20076;-87
2022/08/24 11:49:38;;;;;;;1.83;0.35;;;30.70;94.90;;;;;;4914239;29;20036;-87
2022/08/24 11:52:18;;;;;;;2.97;1.05;;;31.00;94.70;;;;;;4903530;29;20032;-87
2022/08/24 11:54:51;;;;;;;5.13;0.60;;;31.00;94.70;;;;;;4918009;29;20032;-86
2022/08/24 11:57:25;;;;;;;6.87;0.67;;;30.80;94.70;;;;;;4914587;29;20658;-87
2022/08/24 12:00:09;;;;;;;1.42;0.30;;;30.60;95.10;;;;;;4914503;29;20023;-86
2022/08/24 12:02:43;;;;;;;4.32;0.40;;;30.60;95.30;;;;;;4897273;29;20512;-86
2022/08/24 12:05:24;;;;;;;1.00;0.40;;;30.60;94.90;;;;;;4913959;29;20387;-86
2022/08/24 12:08:22;;;;;;;3.72;0.60;;;30.70;95.10;;;;;;4914010;29;20392;-86
2022/08/24 12:11:19;;;;;;;1.42;0.45;;;31.10;94.50;;;;;;4844451;29;20387;-87
2022/08/24 12:13:55;;;;;;;1.45;0.30;;;31.70;94.30;;;;;;4903810;29;20079;-86
2022/08/24 12:16:48;;;;;;;0.90;0.40;;;32.20;93.50;;;;;;4913961;29;20055;-87
2022/08/24 12:19:22;;;;;;;2.15;0.50;;;32.40;93.30;;;;;;4914067;29;20493;-87
2022/08/24 12:21:53;;;;;;;1.92;0.60;;;32.60;93.40;;;;;;4913930;29;20028;-86
2022/08/24 12:24:33;;;;;;;0.98;0.40;;;32.90;93.00;;;;;;4913574;29;20025;-86
2022/08/24 12:27:23;;;;;;;2.28;0.30;;;33.00;92.50;;;;;;4914195;29;20493;-86
2022/08/24 12:29:54;;;;;;;0.85;0.40;;;33.00;92.60;;;;;;4913759;29;20036;-87
2022/08/24 12:32:36;;;;;;;4.40;0.55;;;33.30;91.70;;;;;;4913502;29;20028;-86
2022/08/24 12:35:40;;;;;;;0.55;0.35;;;33.50;91.50;;;;;;4913600;29;20103;-86
2022/08/24 12:38:14;;;;;;;2.15;0.40;;;33.80;90.60;;;;;;4836342;29;20575;-86
2022/08/24 12:40:42;;;;;;;2.95;0.50;;;33.70;90.20;;;;;;4896098;29;20036;-87
2022/08/24 12:43:16;;;;;;;2.22;0.50;;;33.40;90.60;;;;;;4913597;29;20028;-86
2022/08/24 12:45:43;;;;;;;1.42;0.40;;;33.40;90.20;;;;;;4914294;29;20265;-86
2022/08/24 12:48:41;;;;;;;0.68;0.40;;;33.60;90.20;;;;;;4914266;29;20024;-86
2022/08/24 12:51:21;;;;;;;1.25;0.30;;;33.40;90.40;;;;;;4866069;29;20048;-86
2022/08/24 12:53:55;;;;;;;1.75;0.57;;;33.70;90.40;;;;;;4916664;29;20024;-86
2022/08/24 12:56:47;;;;;;;3.42;0.70;;;34.10;89.20;;;;;;4917475;29;20034;-86
2022/08/24 12:59:16;;;;;;;2.83;0.30;;;34.20;87.90;;;;;;4917331;29;20039;-86
2022/08/24 13:01:46;;;;;;;2.00;0.30;;;34.10;88.50;;;;;;4921042;29;20032;-86
2022/08/24 13:04:33;;;;;;;1.98;0.40;;;34.10;88.00;;;;;;4917763;29;20036;-86
2022/08/24 13:07:26;;;;;;;0.73;0.40;;;34.20;88.70;;;;;;4898570;29;20025;-86
2022/08/24 13:09:52;;;;;;;1.48;0.40;;;34.50;88.40;;;;;;4917197;29;20032;-86
2022/08/24 13:12:29;;;;;;;2.53;0.50;;;34.90;85.80;;;;;;4916992;29;20031;-86
2022/08/24 13:15:26;;;;;;;0.52;0.30;;;35.10;86.60;;;;;;4917006;29;20032;-86
2022/08/24 13:18:07;;;;;;;1.00;0.25;;;35.40;85.90;;;;;;4917577;29;20123;-86
2022/08/24 13:20:36;;;;;;;0.65;0.35;;;35.30;84.60;;;;;;4919230;29;20024;-86
2022/08/24 13:23:10;;;;;;;1.38;0.38;;;35.50;85.60;;;;;;4917284;29;20028;-86
2022/08/24 13:25:57;;;;;;;1.70;0.40;;;35.80;84.60;;;;;;4917143;29;20070;-86